Time;durP1;ratioP1;P1;durP2;ratioP2;P2;SDS_P1;SDS_P2;PMS_P1;PMS_P2;Temp;Humidity;BMP_temperature;BMP_pressure;BME280_temperature;BME280_humidity;BME280_pressure;Samples;Min_cycle;Max_cycle;Signal;HPM_P1;HPM_P2
2023/05/20 00:00:16;;;;;;;0.38;0.38;;;9.70;99.90;;;;;;5084657;28;20051;-74
2023/05/20 00:02:42;;;;;;;0.50;0.50;;;9.70;99.90;;;;;;5071895;28;20496;-75
2023/05/20 00:05:08;;;;;;;0.40;0.40;;;9.70;99.90;;;;;;5088980;28;20053;-74
2023/05/20 00:07:34;;;;;;;0.50;0.50;;;9.60;99.90;;;;;;5071259;28;20093;-74
2023/05/20 00:09:59;;;;;;;0.60;0.60;;;9.60;99.90;;;;;;5106116;28;20039;-75
2023/05/20 00:12:25;;;;;;;0.57;0.57;;;9.60;99.90;;;;;;5088744;28;20093;-74
2023/05/20 00:14:51;;;;;;;0.32;0.32;;;9.60;99.90;;;;;;5059528;28;20037;-75
2023/05/20 00:17:16;;;;;;;0.73;0.73;;;9.60;99.90;;;;;;5068909;28;20529;-74
2023/05/20 00:19:42;;;;;;;0.68;0.68;;;9.50;99.90;;;;;;5068706;28;20131;-75
2023/05/20 00:22:08;;;;;;;0.40;0.40;;;9.50;99.90;;;;;;5068798;28;20094;-74
2023/05/20 00:24:33;;;;;;;0.55;0.55;;;9.50;99.90;;;;;;5067975;28;20078;-74
2023/05/20 00:26:59;;;;;;;0.50;0.50;;;9.50;99.90;;;;;;5052063;28;20044;-75
2023/05/20 00:29:25;;;;;;;0.43;0.43;;;9.40;99.90;;;;;;5068283;28;20064;-75
2023/05/20 00:31:50;;;;;;;0.50;0.50;;;9.40;99.90;;;;;;5052052;28;20039;-75
2023/05/20 00:34:16;;;;;;;0.50;0.50;;;9.40;99.90;;;;;;5051760;28;20452;-74
2023/05/20 00:36:42;;;;;;;0.40;0.40;;;9.30;99.90;;;;;;5050830;28;20405;-74
2023/05/20 00:39:07;;;;;;;0.40;0.40;;;9.30;99.90;;;;;;5051960;28;20053;-74
2023/05/20 00:41:34;;;;;;;0.50;0.50;;;9.30;99.90;;;;;;5068150;28;20048;-74
2023/05/20 00:43:59;;;;;;;0.40;0.40;;;9.30;99.90;;;;;;5065708;28;20072;-74
2023/05/20 00:46:27;;;;;;;0.43;0.43;;;9.30;99.90;;;;;;5068083;28;20520;-74
2023/05/20 00:48:52;;;;;;;0.40;0.40;;;9.30;99.90;;;;;;5051826;28;20046;-75
2023/05/20 00:51:19;;;;;;;0.50;0.50;;;9.20;99.90;;;;;;5068322;28;20123;-74
2023/05/20 00:53:45;;;;;;;0.50;0.50;;;9.20;99.90;;;;;;5068163;28;20040;-74
2023/05/20 00:56:11;;;;;;;0.85;0.85;;;9.10;99.90;;;;;;5063704;28;20500;-74
2023/05/20 00:58:38;;;;;;;0.40;0.40;;;9.10;99.90;;;;;;5088674;28;20048;-73
2023/05/20 01:01:05;;;;;;;0.52;0.52;;;9.10;99.90;;;;;;5087727;28;20112;-74
2023/05/20 01:03:31;;;;;;;0.50;0.50;;;9.00;99.90;;;;;;5088446;28;20048;-74
2023/05/20 01:05:56;;;;;;;0.40;0.40;;;8.90;99.90;;;;;;5089176;28;20043;-74
2023/05/20 01:08:24;;;;;;;0.43;0.43;;;8.90;99.90;;;;;;5071934;28;20545;-74
2023/05/20 01:11:05;;;;;;;0.40;0.40;;;8.90;99.90;;;;;;5088010;28;20550;-73
2023/05/20 01:13:43;;;;;;;0.40;0.40;;;8.90;99.90;;;;;;5069456;28;20496;-73
2023/05/20 01:16:10;;;;;;;0.70;0.70;;;8.80;99.90;;;;;;5051524;28;20104;-75
2023/05/20 01:18:38;;;;;;;0.47;0.47;;;8.70;99.90;;;;;;5050455;28;20044;-74
2023/05/20 01:21:08;;;;;;;0.30;0.30;;;8.70;99.90;;;;;;5051382;28;20554;-73
2023/05/20 01:23:39;;;;;;;0.30;0.30;;;8.70;99.90;;;;;;5048771;28;20087;-73
2023/05/20 01:26:05;;;;;;;0.45;0.45;;;8.70;99.90;;;;;;5044747;28;20174;-74
2023/05/20 01:28:34;;;;;;;;;;;8.70;99.90;;;;;;5068367;28;20076;-73
2023/05/20 01:31:04;;;;;;;0.40;0.40;;;8.70;99.90;;;;;;5067582;28;19928;-73
2023/05/20 01:33:33;;;;;;;0.30;0.30;;;8.70;99.90;;;;;;5067237;28;20048;-73
2023/05/20 01:35:59;;;;;;;0.40;0.40;;;8.70;99.90;;;;;;5051435;28;20089;-74
2023/05/20 01:38:25;;;;;;;0.60;0.60;;;8.70;99.90;;;;;;5067863;28;20537;-73
2023/05/20 01:40:53;;;;;;;0.50;0.50;;;8.60;99.90;;;;;;5067221;28;20048;-74
2023/05/20 01:43:20;;;;;;;0.57;0.57;;;8.60;99.90;;;;;;5080844;28;20069;-74
2023/05/20 01:45:45;;;;;;;0.50;0.50;;;8.60;99.90;;;;;;5068352;28;20045;-75
2023/05/20 01:48:11;;;;;;;0.50;0.50;;;8.60;99.90;;;;;;5051017;28;20400;-75
2023/05/20 01:50:38;;;;;;;0.63;0.63;;;8.60;99.90;;;;;;5066596;28;20532;-74
2023/05/20 01:53:04;;;;;;;0.50;0.50;;;8.50;99.90;;;;;;5065525;28;20078;-74
2023/05/20 01:55:30;;;;;;;0.50;0.50;;;8.50;99.90;;;;;;5050468;28;20090;-74
2023/05/20 01:57:56;;;;;;;0.50;0.50;;;8.50;99.90;;;;;;5067771;28;20036;-74
2023/05/20 02:00:22;;;;;;;0.40;0.40;;;8.40;99.90;;;;;;5050819;28;20075;-74
2023/05/20 02:02:47;;;;;;;0.40;0.40;;;8.40;99.90;;;;;;5033424;28;20398;-74
2023/05/20 02:05:13;;;;;;;0.40;0.40;;;8.40;99.90;;;;;;5050707;28;20041;-75
2023/05/20 02:07:39;;;;;;;0.60;0.60;;;8.40;99.90;;;;;;5067740;28;20048;-73
2023/05/20 02:10:05;;;;;;;0.60;0.60;;;8.30;99.90;;;;;;5067623;28;20241;-73
2023/05/20 02:12:31;;;;;;;0.50;0.50;;;8.30;99.90;;;;;;5067991;28;20051;-74
2023/05/20 02:14:56;;;;;;;1.13;1.13;;;8.30;99.90;;;;;;5054573;28;20048;-73
2023/05/20 02:17:22;;;;;;;0.50;0.50;;;8.40;99.90;;;;;;5070774;28;20066;-74
2023/05/20 02:19:48;;;;;;;0.60;0.60;;;8.40;99.90;;;;;;5054906;28;20063;-73
2023/05/20 02:22:14;;;;;;;0.50;0.50;;;8.40;99.90;;;;;;5053681;28;20044;-74
2023/05/20 02:24:40;;;;;;;0.60;0.60;;;8.40;99.90;;;;;;5053624;28;20523;-74
2023/05/20 02:27:06;;;;;;;0.60;0.60;;;8.40;99.90;;;;;;5070840;28;20095;-74
2023/05/20 02:29:32;;;;;;;0.45;0.45;;;8.40;99.90;;;;;;5053407;28;20052;-74
2023/05/20 02:31:57;;;;;;;0.55;0.55;;;8.30;99.90;;;;;;5054519;28;20123;-73
2023/05/20 02:34:24;;;;;;;0.70;0.70;;;8.40;99.90;;;;;;5070930;28;20047;-74
2023/05/20 02:36:51;;;;;;;0.60;0.60;;;8.30;99.90;;;;;;5070106;28;20106;-74
2023/05/20 02:39:17;;;;;;;0.55;0.55;;;8.30;99.90;;;;;;5053155;28;20043;-74
2023/05/20 02:41:42;;;;;;;0.57;0.57;;;8.40;99.90;;;;;;5053404;28;20520;-73
2023/05/20 02:44:08;;;;;;;0.80;0.80;;;8.30;99.90;;;;;;5067140;28;20067;-74
2023/05/20 02:46:34;;;;;;;0.50;0.50;;;8.30;99.90;;;;;;5070057;28;20496;-74
2023/05/20 02:49:00;;;;;;;0.52;0.52;;;8.30;99.90;;;;;;5074265;28;20161;-73
2023/05/20 02:51:26;;;;;;;0.43;0.43;;;8.30;99.90;;;;;;5059354;28;20085;-74
2023/05/20 02:53:51;;;;;;;0.55;0.55;;;8.30;99.90;;;;;;5079873;28;20037;-73
2023/05/20 02:56:20;;;;;;;0.38;0.38;;;8.40;99.90;;;;;;5070295;28;20082;-73
2023/05/20 02:58:46;;;;;;;0.40;0.40;;;8.40;99.90;;;;;;5052568;28;20051;-73
2023/05/20 03:01:12;;;;;;;0.50;0.50;;;8.40;99.90;;;;;;5036821;28;20096;-74
2023/05/20 03:03:39;;;;;;;0.60;0.60;;;8.50;99.90;;;;;;5053067;28;20048;-73
2023/05/20 03:06:08;;;;;;;0.52;0.52;;;8.50;99.90;;;;;;5053618;28;20052;-74
2023/05/20 03:08:35;;;;;;;0.50;0.50;;;8.60;99.90;;;;;;5052366;28;20036;-73
2023/05/20 03:11:01;;;;;;;0.55;0.55;;;8.60;99.90;;;;;;5069366;28;20044;-74
2023/05/20 03:13:27;;;;;;;0.50;0.50;;;8.60;99.90;;;;;;5053515;28;20478;-74
2023/05/20 03:15:52;;;;;;;0.40;0.40;;;8.60;99.90;;;;;;5053005;28;20066;-73
2023/05/20 03:18:18;;;;;;;0.50;0.50;;;8.60;99.90;;;;;;5069684;28;20045;-74
2023/05/20 03:20:45;;;;;;;0.40;0.40;;;8.50;99.90;;;;;;5052297;28;20052;-74
2023/05/20 03:23:11;;;;;;;0.40;0.40;;;8.50;99.90;;;;;;5068758;28;20050;-74
2023/05/20 03:25:37;;;;;;;0.60;0.60;;;8.60;99.90;;;;;;5051925;28;20048;-75
2023/05/20 03:28:05;;;;;;;0.40;0.40;;;8.50;99.90;;;;;;5069181;28;20048;-74
2023/05/20 03:30:31;;;;;;;0.50;0.50;;;8.50;99.90;;;;;;5068998;28;20084;-74
2023/05/20 03:32:57;;;;;;;0.50;0.50;;;8.50;99.90;;;;;;5068928;28;20040;-74
2023/05/20 03:35:24;;;;;;;0.50;0.50;;;8.50;99.90;;;;;;5052417;28;20040;-73
2023/05/20 03:37:53;;;;;;;0.60;0.60;;;8.50;99.90;;;;;;5052362;28;20090;-75
2023/05/20 03:40:22;;;;;;;0.50;0.50;;;8.50;99.90;;;;;;5068991;28;20071;-74
2023/05/20 03:42:49;;;;;;;0.45;0.45;;;8.50;99.90;;;;;;5077777;28;20043;-75
2023/05/20 03:45:15;;;;;;;0.50;0.50;;;8.60;99.90;;;;;;5073462;28;20040;-74
2023/05/20 03:47:41;;;;;;;0.40;0.40;;;8.60;99.90;;;;;;5070481;28;20543;-73
2023/05/20 03:50:07;;;;;;;0.50;0.50;;;8.60;99.90;;;;;;5069903;28;20048;-74
2023/05/20 03:52:33;;;;;;;0.60;0.60;;;8.70;99.90;;;;;;5085156;28;20075;-72
2023/05/20 03:54:59;;;;;;;;;;;8.70;99.90;;;;;;5070430;28;20048;-73
2023/05/20 03:57:25;;;;;;;0.50;0.50;;;8.80;99.90;;;;;;5068955;28;19982;-73
2023/05/20 03:59:50;;;;;;;0.50;0.50;;;8.90;99.90;;;;;;5067615;28;20037;-73
2023/05/20 04:02:16;;;;;;;0.52;0.52;;;9.00;99.90;;;;;;5068313;28;20052;-74
2023/05/20 04:04:42;;;;;;;0.38;0.38;;;9.10;99.90;;;;;;5068357;28;20049;-74
2023/05/20 04:07:11;;;;;;;0.50;0.50;;;9.20;99.90;;;;;;5051860;28;20128;-74
2023/05/20 04:09:37;;;;;;;0.50;0.50;;;9.20;99.90;;;;;;5051724;28;20120;-74
2023/05/20 04:12:04;;;;;;;0.50;0.50;;;9.30;99.90;;;;;;5068572;28;20091;-74
2023/05/20 04:14:33;;;;;;;0.50;0.50;;;9.40;99.90;;;;;;5068118;28;20382;-74
2023/05/20 04:16:58;;;;;;;0.40;0.40;;;9.40;99.90;;;;;;5052035;28;20048;-75
2023/05/20 04:19:27;;;;;;;0.43;0.43;;;9.50;99.90;;;;;;5068265;28;20071;-74
2023/05/20 04:21:53;;;;;;;0.88;0.88;;;9.60;99.90;;;;;;5051538;28;20045;-73
2023/05/20 04:24:18;;;;;;;0.40;0.40;;;9.70;99.90;;;;;;5068686;28;20048;-74
2023/05/20 04:26:44;;;;;;;0.40;0.40;;;9.70;99.90;;;;;;5067737;28;20131;-73
2023/05/20 04:29:10;;;;;;;0.40;0.40;;;9.80;99.90;;;;;;5051672;28;20045;-74
2023/05/20 04:31:37;;;;;;;0.40;0.40;;;9.90;99.90;;;;;;5035506;28;20102;-74
2023/05/20 04:34:03;;;;;;;0.40;0.40;;;9.90;99.90;;;;;;5067985;28;20489;-74
2023/05/20 04:36:29;;;;;;;0.47;0.47;;;10.00;99.90;;;;;;5068323;28;20044;-74
2023/05/20 04:38:56;;;;;;;0.50;0.50;;;10.00;99.90;;;;;;5068228;28;20071;-74
2023/05/20 04:41:21;;;;;;;0.50;0.50;;;10.10;99.90;;;;;;5049130;28;20078;-74
2023/05/20 04:43:48;;;;;;;0.40;0.40;;;10.20;99.90;;;;;;5071364;28;20064;-74
2023/05/20 04:46:15;;;;;;;0.35;0.35;;;10.20;99.90;;;;;;5051638;28;20066;-74
2023/05/20 04:48:42;;;;;;;0.60;0.60;;;10.30;99.90;;;;;;5051748;28;20120;-73
2023/05/20 04:51:08;;;;;;;0.40;0.40;;;10.30;99.90;;;;;;5071270;28;20040;-73
2023/05/20 04:53:34;;;;;;;;;;;10.30;99.90;;;;;;5081584;28;20041;-74
2023/05/20 04:56:00;;;;;;;0.50;0.50;;;10.40;99.90;;;;;;5067135;28;19923;-74
2023/05/20 04:58:29;;;;;;;0.40;0.40;;;10.40;99.90;;;;;;5068602;28;20044;-74
2023/05/20 05:00:55;;;;;;;0.38;0.38;;;10.50;99.90;;;;;;5068089;28;20460;-74
2023/05/20 05:03:21;;;;;;;0.50;0.50;;;10.50;99.90;;;;;;5051545;28;20457;-74
2023/05/20 05:05:47;;;;;;;0.40;0.40;;;10.60;99.90;;;;;;5035150;28;20079;-74
2023/05/20 05:08:13;;;;;;;0.50;0.50;;;10.60;99.90;;;;;;5051889;28;20477;-74
2023/05/20 05:10:39;;;;;;;0.40;0.40;;;10.70;99.90;;;;;;5067990;28;20123;-74
2023/05/20 05:13:04;;;;;;;;;;;10.80;99.90;;;;;;5067944;28;20551;-75
2023/05/20 05:15:30;;;;;;;0.40;0.40;;;10.80;99.90;;;;;;5051959;28;19920;-75
2023/05/20 05:17:56;;;;;;;0.30;0.30;;;10.90;99.90;;;;;;5067075;28;20477;-74
2023/05/20 05:20:21;;;;;;;0.50;0.50;;;11.00;99.90;;;;;;5068123;28;20433;-75
2023/05/20 05:22:49;;;;;;;0.40;0.40;;;11.10;99.90;;;;;;5067867;28;20612;-74
2023/05/20 05:25:15;;;;;;;0.40;0.40;;;11.20;99.90;;;;;;5068490;28;20076;-74
2023/05/20 05:27:40;;;;;;;0.55;0.55;;;11.40;99.90;;;;;;5068048;28;20461;-74
2023/05/20 05:30:07;;;;;;;0.38;0.38;;;11.60;99.90;;;;;;5050464;28;20037;-73
2023/05/20 05:32:33;;;;;;;0.30;0.30;;;11.80;99.90;;;;;;5050839;28;20101;-75
2023/05/20 05:34:58;;;;;;;0.60;0.60;;;12.00;99.90;;;;;;5067762;28;20481;-74
2023/05/20 05:37:24;;;;;;;0.40;0.40;;;12.10;99.90;;;;;;5062856;28;20485;-73
2023/05/20 05:39:50;;;;;;;0.30;0.30;;;12.20;99.90;;;;;;5087414;28;20055;-73
2023/05/20 05:42:16;;;;;;;0.40;0.40;;;12.30;99.90;;;;;;5067019;28;20107;-74
2023/05/20 05:44:41;;;;;;;0.40;0.40;;;12.20;99.90;;;;;;5051065;28;20071;-75
2023/05/20 05:47:07;;;;;;;0.30;0.30;;;12.30;99.90;;;;;;5067262;28;20044;-74
2023/05/20 05:49:33;;;;;;;0.40;0.40;;;12.20;99.90;;;;;;5071889;28;20051;-74
2023/05/20 05:51:59;;;;;;;0.30;0.30;;;12.20;99.90;;;;;;5080974;28;20515;-74
2023/05/20 05:54:25;;;;;;;0.40;0.40;;;12.20;99.90;;;;;;5077475;28;20037;-74
2023/05/20 05:56:51;;;;;;;0.38;0.38;;;12.20;99.90;;;;;;5070956;28;20068;-75
2023/05/20 05:59:18;;;;;;;;;;;12.20;99.90;;;;;;5055085;28;20044;-74
2023/05/20 06:01:44;;;;;;;0.30;0.30;;;12.10;99.90;;;;;;5071053;28;19966;-74
2023/05/20 06:04:10;;;;;;;0.32;0.32;;;12.10;99.90;;;;;;5054295;28;20068;-74
2023/05/20 06:06:36;;;;;;;0.47;0.47;;;12.10;99.90;;;;;;5070637;28;20044;-74
2023/05/20 06:09:02;;;;;;;0.38;0.38;;;12.10;99.90;;;;;;5070864;28;20059;-74
2023/05/20 06:11:28;;;;;;;0.40;0.40;;;12.10;99.90;;;;;;5070581;28;20390;-75
2023/05/20 06:13:53;;;;;;;0.30;0.30;;;12.10;99.90;;;;;;5071536;28;20029;-73
2023/05/20 06:16:19;;;;;;;0.40;0.40;;;12.10;99.90;;;;;;5072824;28;20045;-74
2023/05/20 06:18:46;;;;;;;0.20;0.20;;;12.10;99.90;;;;;;5054301;28;20044;-74
2023/05/20 06:21:11;;;;;;;0.40;0.40;;;12.10;99.90;;;;;;5071110;28;20386;-73
2023/05/20 06:23:37;;;;;;;0.40;0.40;;;12.10;99.90;;;;;;5070879;28;20397;-73
2023/05/20 06:26:03;;;;;;;0.30;0.30;;;12.20;99.90;;;;;;5053103;28;20060;-75
2023/05/20 06:28:29;;;;;;;0.30;0.30;;;12.30;99.90;;;;;;5070506;28;20485;-74
2023/05/20 06:30:55;;;;;;;0.30;0.30;;;12.30;99.90;;;;;;5070061;28;20076;-74
2023/05/20 06:33:26;;;;;;;0.35;0.35;;;12.40;99.90;;;;;;5077827;28;20036;-75
2023/05/20 06:35:54;;;;;;;0.25;0.25;;;12.50;99.90;;;;;;5053568;28;20055;-74
2023/05/20 06:38:20;;;;;;;0.30;0.30;;;12.60;99.90;;;;;;5070311;28;20501;-74
2023/05/20 06:40:47;;;;;;;0.25;0.25;;;12.70;99.90;;;;;;5070656;28;20052;-75
2023/05/20 06:43:14;;;;;;;0.30;0.30;;;12.80;99.90;;;;;;5082710;28;20052;-74
2023/05/20 06:45:40;;;;;;;0.40;0.40;;;12.90;99.90;;;;;;5088984;28;20127;-74
2023/05/20 06:48:06;;;;;;;0.20;0.20;;;13.00;99.90;;;;;;5069256;28;20457;-75
2023/05/20 06:50:32;;;;;;;0.20;0.20;;;13.00;99.90;;;;;;5070286;28;20079;-74
2023/05/20 06:52:58;;;;;;;0.30;0.30;;;13.10;99.90;;;;;;5053388;28;20076;-73
2023/05/20 06:55:25;;;;;;;0.35;0.35;;;13.20;99.90;;;;;;5070868;28;20051;-75
2023/05/20 06:57:50;;;;;;;0.30;0.30;;;13.20;99.90;;;;;;5070457;28;20056;-74
2023/05/20 07:00:16;;;;;;;0.30;0.30;;;13.30;99.90;;;;;;5040657;28;20114;-73
2023/05/20 07:02:42;;;;;;;;;;;13.30;99.90;;;;;;5033841;28;20048;-73
2023/05/20 07:05:08;;;;;;;0.50;0.50;;;13.40;99.90;;;;;;5033024;28;20191;-73
2023/05/20 07:07:34;;;;;;;;;;;13.50;99.90;;;;;;5033976;28;20045;-74
2023/05/20 07:10:00;;;;;;;0.38;0.38;;;13.60;99.90;;;;;;5033422;28;19921;-74
2023/05/20 07:12:25;;;;;;;0.40;0.40;;;13.70;99.90;;;;;;5050350;28;20163;-73
2023/05/20 07:14:51;;;;;;;0.28;0.28;;;13.90;99.90;;;;;;5046971;28;20145;-74
2023/05/20 07:17:17;;;;;;;0.30;0.30;;;14.00;99.90;;;;;;5070333;28;20067;-74
2023/05/20 07:19:42;;;;;;;0.30;0.30;;;14.20;99.90;;;;;;5070357;28;20123;-75
2023/05/20 07:22:08;;;;;;;;;;;14.20;99.90;;;;;;5069969;28;20098;-75
2023/05/20 07:24:37;;;;;;;0.30;0.30;;;14.30;99.90;;;;;;5069234;28;20292;-74
2023/05/20 07:27:03;;;;;;;0.30;0.30;;;14.30;99.90;;;;;;5032038;28;20155;-74
2023/05/20 07:29:28;;;;;;;0.30;0.30;;;14.40;99.90;;;;;;5067292;28;20466;-74
2023/05/20 07:31:54;;;;;;;;;;;14.40;99.90;;;;;;5090165;28;20040;-74
2023/05/20 07:34:21;;;;;;;0.30;0.30;;;14.40;99.90;;;;;;5080741;28;19956;-74
2023/05/20 07:36:48;;;;;;;0.30;0.30;;;14.50;99.90;;;;;;5075349;28;20084;-74
2023/05/20 07:39:14;;;;;;;0.47;0.47;;;14.50;99.90;;;;;;5069604;28;20051;-74
2023/05/20 07:41:40;;;;;;;0.20;0.20;;;14.70;99.90;;;;;;5052708;28;20043;-74
2023/05/20 07:44:07;;;;;;;;;;;14.70;99.90;;;;;;5066910;28;20044;-73
2023/05/20 07:46:33;;;;;;;0.32;0.32;;;14.70;99.90;;;;;;5052730;28;19964;-74
2023/05/20 07:48:59;;;;;;;0.20;0.20;;;14.70;99.90;;;;;;5068457;28;20528;-74
2023/05/20 07:51:25;;;;;;;0.85;0.60;;;14.80;99.90;;;;;;5052828;28;20036;-74
2023/05/20 07:53:50;;;;;;;0.30;0.30;;;14.80;99.90;;;;;;5053083;28;20124;-74
2023/05/20 07:56:16;;;;;;;0.20;0.20;;;14.90;99.90;;;;;;5052204;28;20131;-74
2023/05/20 07:58:42;;;;;;;;;;;15.00;99.90;;;;;;5069521;28;20461;-74
2023/05/20 08:01:08;;;;;;;0.40;0.40;;;15.10;99.90;;;;;;5051802;28;19920;-74
2023/05/20 08:03:35;;;;;;;0.30;0.30;;;15.10;99.90;;;;;;5052544;28;20098;-74
2023/05/20 08:06:04;;;;;;;0.20;0.20;;;15.20;99.90;;;;;;5068643;28;20049;-75
2023/05/20 08:08:29;;;;;;;0.52;0.52;;;15.30;99.90;;;;;;5069559;28;20298;-74
2023/05/20 08:10:55;;;;;;;0.50;0.50;;;15.40;99.90;;;;;;5068510;28;20040;-75
2023/05/20 08:13:23;;;;;;;0.50;0.50;;;15.40;99.90;;;;;;5068713;28;20044;-75
2023/05/20 08:15:48;;;;;;;0.20;0.20;;;15.50;99.90;;;;;;5052508;28;20447;-74
2023/05/20 08:18:15;;;;;;;0.75;0.75;;;15.60;99.90;;;;;;5051584;28;20052;-74
2023/05/20 08:20:43;;;;;;;0.30;0.30;;;15.70;99.90;;;;;;5051642;28;20048;-74
2023/05/20 08:23:09;;;;;;;0.30;0.30;;;15.70;99.90;;;;;;5051594;28;20051;-74
2023/05/20 08:25:35;;;;;;;0.60;0.60;;;15.80;99.90;;;;;;5075913;28;20043;-75
2023/05/20 08:28:02;;;;;;;;;;;15.80;99.90;;;;;;5105930;28;20058;-75
2023/05/20 08:30:29;;;;;;;0.35;0.32;;;15.90;99.90;;;;;;5088424;28;19975;-75
2023/05/20 08:32:58;;;;;;;0.35;0.32;;;16.00;99.90;;;;;;5089600;28;20075;-75
2023/05/20 08:35:24;;;;;;;0.10;0.10;;;16.00;99.90;;;;;;5068140;28;20416;-76
2023/05/20 08:37:52;;;;;;;0.30;0.30;;;16.00;99.90;;;;;;5068711;28;20059;-75
2023/05/20 08:40:19;;;;;;;0.20;0.20;;;16.10;99.90;;;;;;5067734;28;20052;-74
2023/05/20 08:42:47;;;;;;;0.35;0.35;;;16.20;99.90;;;;;;5076769;28;20052;-75
2023/05/20 08:45:17;;;;;;;0.20;0.20;;;16.30;99.90;;;;;;5057077;28;20656;-75
2023/05/20 08:47:43;;;;;;;0.25;0.25;;;16.50;99.90;;;;;;5068022;28;20044;-74
2023/05/20 08:50:10;;;;;;;;;;;16.60;99.90;;;;;;5068499;28;20609;-75
2023/05/20 08:52:39;;;;;;;0.20;0.20;;;16.60;99.90;;;;;;5068427;28;19921;-75
2023/05/20 08:55:08;;;;;;;0.20;0.20;;;16.60;99.90;;;;;;5068022;28;20047;-75
2023/05/20 08:57:36;;;;;;;0.30;0.30;;;16.60;99.90;;;;;;5067762;28;20047;-74
2023/05/20 09:00:08;;;;;;;0.57;0.57;;;16.60;99.90;;;;;;5068340;28;20048;-76
2023/05/20 09:02:39;;;;;;;0.30;0.30;;;16.70;99.90;;;;;;5052345;28;20040;-76
2023/05/20 09:05:06;;;;;;;1.25;1.00;;;16.70;99.90;;;;;;5067595;28;20087;-75
2023/05/20 09:07:31;;;;;;;0.20;0.20;;;16.80;99.90;;;;;;5051533;28;20037;-74
2023/05/20 09:09:57;;;;;;;0.65;0.65;;;16.90;99.90;;;;;;5069781;28;20055;-75
2023/05/20 09:12:23;;;;;;;;;;;16.90;99.90;;;;;;5068107;28;20124;-75
2023/05/20 09:14:49;;;;;;;0.30;0.30;;;17.00;99.90;;;;;;5067618;28;19923;-76
2023/05/20 09:17:14;;;;;;;;;;;17.10;99.90;;;;;;5051619;28;20094;-75
2023/05/20 09:19:40;;;;;;;0.20;0.20;;;17.10;99.90;;;;;;5067864;28;19927;-75
2023/05/20 09:22:06;;;;;;;;;;;17.10;99.90;;;;;;5078571;28;20044;-75
2023/05/20 09:24:32;;;;;;;0.28;0.28;;;17.20;99.90;;;;;;5092116;28;19920;-76
2023/05/20 09:26:58;;;;;;;;;;;17.40;99.90;;;;;;5072443;28;20040;-74
2023/05/20 09:29:25;;;;;;;0.20;0.20;;;17.50;99.90;;;;;;5070943;28;19997;-75
2023/05/20 09:31:52;;;;;;;0.22;0.22;;;17.50;99.90;;;;;;5071575;28;20546;-75
2023/05/20 09:34:19;;;;;;;0.20;0.20;;;17.60;99.90;;;;;;5055041;28;20482;-75
2023/05/20 09:36:52;;;;;;;0.17;0.17;;;18.00;99.90;;;;;;5071735;28;20044;-74
2023/05/20 09:39:24;;;;;;;0.20;0.20;;;17.80;99.90;;;;;;5054535;28;20496;-75
2023/05/20 09:42:16;;;;;;;0.30;0.30;;;17.90;99.90;;;;;;5071966;28;20058;-75
2023/05/20 09:44:43;;;;;;;0.30;0.30;;;18.00;99.90;;;;;;5081559;28;20507;-75
2023/05/20 09:47:10;;;;;;;0.28;0.28;;;18.00;99.90;;;;;;5070780;28;20049;-75
2023/05/20 09:49:37;;;;;;;0.17;0.17;;;17.90;99.90;;;;;;5070415;28;20432;-75
2023/05/20 09:52:03;;;;;;;0.17;0.17;;;17.90;99.90;;;;;;5034751;28;20048;-75
2023/05/20 09:54:31;;;;;;;0.40;0.40;;;18.00;99.90;;;;;;5032888;28;20072;-75
2023/05/20 09:56:59;;;;;;;0.30;0.30;;;18.10;99.90;;;;;;5071185;28;20124;-75
2023/05/20 09:59:26;;;;;;;0.20;0.20;;;18.10;99.90;;;;;;5070692;28;20036;-75
2023/05/20 10:01:52;;;;;;;0.20;0.20;;;18.10;99.90;;;;;;5054835;28;20037;-75
2023/05/20 10:04:19;;;;;;;;;;;18.10;99.90;;;;;;5038189;28;20488;-75
2023/05/20 10:07:02;;;;;;;0.35;0.35;;;18.20;99.90;;;;;;5071349;28;19967;-74
2023/05/20 10:09:44;;;;;;;0.22;0.22;;;18.30;99.90;;;;;;5070889;28;20044;-74
2023/05/20 10:12:10;;;;;;;0.20;0.20;;;18.50;99.90;;;;;;5070745;28;20059;-75
2023/05/20 10:14:38;;;;;;;;;;;18.60;99.90;;;;;;5072865;28;20045;-75
2023/05/20 10:17:24;;;;;;;0.20;0.20;;;18.60;99.90;;;;;;5071030;28;20441;-76
2023/05/20 10:19:57;;;;;;;0.20;0.20;;;18.60;99.90;;;;;;5051561;28;20049;-75
2023/05/20 10:22:28;;;;;;;0.20;0.20;;;18.60;99.90;;;;;;5051256;28;20045;-74
2023/05/20 10:24:59;;;;;;;0.20;0.20;;;18.60;99.90;;;;;;5054004;28;20552;-75
2023/05/20 10:27:24;;;;;;;0.50;0.50;;;18.60;99.90;;;;;;5070656;28;20079;-75
2023/05/20 10:29:50;;;;;;;;;;;18.70;99.90;;;;;;5070561;28;20091;-74
2023/05/20 10:32:30;;;;;;;0.57;0.57;;;18.70;99.90;;;;;;5070043;28;19917;-76
2023/05/20 10:35:03;;;;;;;0.20;0.20;;;18.80;99.90;;;;;;5069854;28;20500;-75
2023/05/20 10:37:41;;;;;;;0.30;0.30;;;18.60;99.90;;;;;;5069491;28;20199;-74
2023/05/20 10:40:11;;;;;;;0.45;0.45;;;18.40;99.90;;;;;;5069818;28;20091;-75
2023/05/20 10:42:37;;;;;;;0.25;0.25;;;18.40;99.90;;;;;;5076520;28;20044;-75
2023/05/20 10:45:05;;;;;;;0.20;0.20;;;18.40;99.90;;;;;;5065352;28;20488;-75
2023/05/20 10:47:31;;;;;;;0.25;0.25;;;18.70;99.90;;;;;;5049182;28;20036;-74
2023/05/20 10:49:57;;;;;;;0.47;0.47;;;19.00;99.90;;;;;;5069042;28;20052;-75
2023/05/20 10:52:23;;;;;;;0.28;0.28;;;19.20;99.90;;;;;;5070306;28;20044;-75
2023/05/20 10:54:52;;;;;;;0.40;0.40;;;19.10;99.90;;;;;;5069263;28;20106;-74
2023/05/20 10:57:18;;;;;;;0.30;0.30;;;18.80;99.90;;;;;;5069426;28;20202;-75
2023/05/20 10:59:43;;;;;;;0.20;0.20;;;18.50;99.90;;;;;;5069469;28;20135;-75
2023/05/20 11:02:10;;;;;;;;;;;18.30;99.90;;;;;;5069999;28;20397;-75
2023/05/20 11:04:37;;;;;;;1.15;1.15;;;18.30;99.90;;;;;;5069366;28;19917;-75
2023/05/20 11:07:03;;;;;;;0.20;0.20;;;18.50;99.90;;;;;;5069203;28;20044;-75
2023/05/20 11:09:30;;;;;;;;;;;18.60;99.90;;;;;;5052770;28;20488;-76
2023/05/20 11:11:56;;;;;;;0.30;0.30;;;18.60;99.90;;;;;;5068908;28;20358;-75
2023/05/20 11:14:22;;;;;;;0.30;0.30;;;18.60;99.90;;;;;;5059871;28;20118;-74
2023/05/20 11:16:52;;;;;;;;;;;18.60;99.90;;;;;;5106885;28;20182;-75
2023/05/20 11:19:18;;;;;;;0.32;0.32;;;18.70;99.90;;;;;;5089161;28;19994;-75
2023/05/20 11:21:44;;;;;;;;;;;18.60;99.90;;;;;;5089512;28;20048;-75
2023/05/20 11:24:11;;;;;;;0.13;0.13;;;18.30;99.90;;;;;;5089052;28;19926;-74
2023/05/20 11:26:38;;;;;;;0.20;0.20;;;18.10;99.90;;;;;;5070709;28;20048;-75
2023/05/20 11:29:03;;;;;;;0.13;0.13;;;18.00;99.90;;;;;;5019614;28;1432584;-75
2023/05/20 11:31:30;;;;;;;;;;;17.90;99.90;;;;;;5053142;28;20084;-76
2023/05/20 11:34:03;;;;;;;0.40;0.40;;;18.00;99.90;;;;;;5070076;28;19923;-75
2023/05/20 11:36:29;;;;;;;0.22;0.22;;;18.20;99.90;;;;;;5059316;28;20045;-76
2023/05/20 11:38:59;;;;;;;0.60;0.40;;;18.60;99.90;;;;;;5070773;28;20052;-75
2023/05/20 11:41:26;;;;;;;0.30;0.30;;;18.80;99.90;;;;;;5056923;28;20057;-76
2023/05/20 11:43:58;;;;;;;0.20;0.20;;;19.00;99.90;;;;;;5080851;28;20513;-75
2023/05/20 11:46:24;;;;;;;0.20;0.20;;;19.00;99.90;;;;;;5051388;28;20040;-75
2023/05/20 11:48:56;;;;;;;0.30;0.30;;;18.90;99.90;;;;;;5069075;28;20483;-75
2023/05/20 11:51:31;;;;;;;0.65;0.65;;;19.10;99.90;;;;;;5069033;28;20044;-75
2023/05/20 11:54:05;;;;;;;0.30;0.30;;;19.30;99.90;;;;;;5052228;28;20119;-76
2023/05/20 11:56:33;;;;;;;0.40;0.40;;;19.50;99.90;;;;;;5069153;28;20142;-76
2023/05/20 11:59:00;;;;;;;0.22;0.22;;;19.50;99.90;;;;;;5069085;28;20072;-76
2023/05/20 12:01:28;;;;;;;0.28;0.25;;;19.60;99.90;;;;;;5052967;28;20151;-74
2023/05/20 12:03:54;;;;;;;0.73;0.38;;;19.90;99.90;;;;;;5069710;28;20037;-74
2023/05/20 12:06:20;;;;;;;0.20;0.20;;;20.10;99.90;;;;;;5068661;28;20530;-75
2023/05/20 12:08:46;;;;;;;0.20;0.20;;;20.40;99.90;;;;;;5068925;28;20094;-75
2023/05/20 12:11:12;;;;;;;0.22;0.22;;;20.50;99.90;;;;;;5082130;28;20101;-76
2023/05/20 12:13:38;;;;;;;0.30;0.30;;;20.50;99.90;;;;;;5086041;28;20459;-74
2023/05/20 12:16:05;;;;;;;0.20;0.20;;;20.60;99.90;;;;;;5068455;28;20048;-76
2023/05/20 12:18:31;;;;;;;0.65;0.65;;;20.80;99.90;;;;;;5068234;28;20044;-76
2023/05/20 12:20:58;;;;;;;0.22;0.22;;;20.80;99.90;;;;;;5069208;28;20194;-75
2023/05/20 12:23:23;;;;;;;0.28;0.28;;;20.70;99.90;;;;;;5051709;28;20040;-76
2023/05/20 12:25:49;;;;;;;0.88;0.30;;;20.40;99.90;;;;;;5068360;28;20405;-76
2023/05/20 12:28:16;;;;;;;0.38;0.38;;;20.00;99.90;;;;;;5068790;28;20489;-75
2023/05/20 12:30:42;;;;;;;0.20;0.20;;;19.50;99.90;;;;;;5068920;28;20040;-74
2023/05/20 12:33:08;;;;;;;0.30;0.30;;;19.20;99.90;;;;;;5068335;28;20089;-75
2023/05/20 12:35:39;;;;;;;0.70;0.45;;;19.20;99.90;;;;;;5068144;28;20115;-76
2023/05/20 12:38:06;;;;;;;0.90;0.75;;;19.60;99.90;;;;;;5051840;28;20051;-75
2023/05/20 12:40:32;;;;;;;0.20;0.20;;;20.00;99.90;;;;;;5067785;28;20097;-76
2023/05/20 12:42:59;;;;;;;0.55;0.38;;;20.30;99.90;;;;;;5078117;28;20388;-76
2023/05/20 12:45:25;;;;;;;0.30;0.30;;;20.50;99.90;;;;;;5055869;28;20055;-75
2023/05/20 12:47:50;;;;;;;0.75;0.68;;;20.60;99.90;;;;;;5068830;28;20048;-75
2023/05/20 12:50:16;;;;;;;1.27;0.60;;;20.60;99.90;;;;;;5051853;28;20400;-76
2023/05/20 12:52:42;;;;;;;0.25;0.25;;;20.90;99.90;;;;;;5031362;28;20041;-75
2023/05/20 12:55:12;;;;;;;0.35;0.35;;;21.30;99.90;;;;;;5047964;28;20080;-76